San Bernardino International Airport
KSBD : now visible

Airfield :











YOU CAN JOIN US ON...

 
LOGIN :

Register | Disclaimer

   EN    FR    IT 

 









Legend :    VFR   Marginal VFR   IFR   Intensive IFR   Very Intensive IFR
Visi :
Ceiling :
>= 8 km
>= 3000ft
5 to 8 km
1000 to 3000 ft
1500m to 5 km
500 to 1000 ft
800 to 1500m
200 to 500 ft
< 800m
< 200 ft
Symbols :   Thunderstorms  Fog  Heavy snow  Heavy precipitations  Wind > 20 kt






- Airport Elevation : 1159 ft


KSBD - San Bernardino International

CURRENT METAR :
  • 201454Z 00000KT 3SM HZ BKN011 OVC026 14/10 A3001

EXPIRED METARs :
  • 201400Z 00000KT 2SM BR OVC021 14/10 A2999
  • 201240Z AUTO 00000KT 7SM OVC016 14/09 A2998 RMK AO2 T01380090
  • 201220Z AUTO 00000KT 7SM OVC013 14/09 A2997 RMK AO2 T01370089
  • 201200Z AUTO 20003KT 7SM OVC013 14/09 A2997 RMK AO2 T01380090
  • 201140Z AUTO 00000KT 7SM OVC013 14/09 A2997 RMK AO2 T01380090
  • 201120Z AUTO 26003KT 10SM OVC013 14/09 A2997 RMK AO2 T01360089
  • 201100Z AUTO 25004KT 10SM OVC015 14/09 A2996 RMK AO2 T01360088

TAF KSBD
Valid from the 20 at 15:00 until the 21 at 12:00 UTC


201446Z 2015/2112 VRB04KT 3SM BR OVC020
FM201800 25007KT P6SM SKC
FM210400 25005KT P6SM SKC
FM211000 VRB04KT P6SM BKN012
KZLA FIR / North America



MET'MAP, your aeronautical weather chart ! - Copyright ORBIFLY December 2007 - Disclaimer

ORBIFLY MET'MAP TEAM :

Programming & Development : Alexandra Zaïnal
Original concept : Baudouin d'Aumeries
Technical & hardware support : Manuel Goepfert
Assistance : Marc-Olivier Méhu




SOURCES & CREDITS :

   NOAA       Earth
Advisory